Flight Track Log - Related Links

Times and Time Zones

All times are in EDT time to prevent confusion due to time zone crossing. See the UAL4843 flight status page for this flight to view local times or setup timezone preferences in your user account.

Time Position Orientation Groundspeed Altitude Reporting Facility
EDT Latitude Longitude Course Direction KTS MPH feet Rate Location/Type
Mon 12:40:00 PM 40.3602 -74.7336 232° Southwest  Level Estimated
Mon 12:41:00 PM 40.3184 -74.8038 232° Southwest  Level Estimated
Mon 12:42:00 PM 40.2767 -74.8739 232° Southwest  Level Estimated
Mon 12:43:00 PM 40.2348 -74.9440 232° Southwest  Level Estimated
Mon 12:44:00 PM 40.1930 -75.0139 232° Southwest  Level Estimated
Mon 12:45:00 PM 40.1511 -75.0838 232° Southwest  Level Estimated
Mon 12:46:00 PM 40.1091 -75.1536 232° Southwest  Level Estimated
Mon 12:47:00 PM 40.0671 -75.2233 232° Southwest  Level Estimated
Mon 12:48:00 PM 40.0251 -75.2929 232° Southwest  Level Estimated
Mon 12:49:00 PM 39.9830 -75.3624 232° Southwest  Level Estimated
Mon 12:50:00 PM 39.9409 -75.4319 232° Southwest  Level Estimated
Mon 12:51:00 PM 39.8988 -75.5012 232° Southwest  Level Estimated
Mon 12:52:00 PM 39.8566 -75.5705 232° Southwest  Level Estimated
Mon 12:53:00 PM 39.8144 -75.6397 232° Southwest  Level Estimated
Mon 12:54:00 PM 39.7721 -75.7088 231° Southwest  Level Estimated
Mon 12:55:00 PM 39.7298 -75.7778 231° Southwest  Level Estimated
Mon 12:56:00 PM 39.6874 -75.8467 231° Southwest  Level Estimated
Mon 12:57:00 PM 39.6450 -75.9156 231° Southwest  Level Estimated
Mon 12:58:00 PM 39.6026 -75.9844 231° Southwest  Level Estimated
Mon 12:59:00 PM 39.5601 -76.0530 231° Southwest  Level Estimated
Mon 01:00:00 PM 39.5176 -76.1216 231° Southwest  Level Estimated
Mon 01:01:00 PM 39.4750 -76.1901 231° Southwest  Level Estimated
Mon 01:02:00 PM 39.4324 -76.2586 231° Southwest  Level Estimated
Mon 01:03:00 PM 39.3898 -76.3269 231° Southwest  Level Estimated
Mon 01:04:00 PM 39.3471 -76.3952 231° Southwest  Level Estimated
Mon 01:05:00 PM 39.3044 -76.4634 231° Southwest  Level Estimated
Mon 01:06:00 PM 39.2616 -76.5314 231° Southwest  Level Estimated
Mon 01:07:00 PM 39.2188 -76.5995 231° Southwest  Level Estimated
Mon 01:08:00 PM 39.1759 -76.6674 231° Southwest  Level Estimated
Mon 01:09:00 PM 39.1754 -76.6683 231° Southwest  Level Estimated
Mon 01:10:00 PM 39.1754 -76.6683 293° West  Level Estimated
Mon 01:11:00 PM 39.1754 -76.6683 293° West  Level Estimated
Mon 01:12:00 PM 39.1754 -76.6683 293° West  Level Estimated
Mon 01:13:00 PM 39.1754 -76.6683 293° West  Level Estimated
Mon 01:14:00 PM 39.1754 -76.6683 293° West  Level Estimated
Mon 01:15:00 PM 39.1754 -76.6683 293° West  Level Estimated
Mon 01:16:00 PM 39.1754 -76.6683 293° West  Level Estimated
Mon 01:17:00 PM 39.1754 -76.6683 293° West  Level Estimated
Mon 01:18:00 PM 39.1754 -76.6683 293° West  Level Estimated
Mon 01:19:00 PM 39.1754 -76.6683 293° West  Level Estimated
Mon 01:20:00 PM 39.1754 -76.6683 293° West  Level Estimated
Mon 01:21:00 PM 39.1754 -76.6683 293° West  Level Estimated
Mon 01:22:00 PM 39.1754 -76.6683 293° West  Level Estimated
Mon 01:23:00 PM 39.1754 -76.6683 293° West  Level Estimated
Mon 01:24:00 PM 39.1754 -76.6683 293° West  Level Estimated

Login

Don't have an account? Register now (free) for customized features, flight alerts, and more!